createdAt,value
2018-07-21T00:00:27.542Z,10.67
2018-07-21T00:05:31.361Z,8.15
2018-07-21T00:10:35.349Z,8.20
2018-07-21T00:15:39.162Z,9.60
2018-07-21T00:20:43.004Z,7.87
2018-07-21T00:25:46.857Z,7.97
2018-07-21T00:30:50.664Z,8.00
2018-07-21T00:35:54.496Z,8.60
2018-07-21T00:40:59.249Z,8.33
2018-07-21T00:46:03.666Z,7.97
2018-07-21T00:51:07.469Z,8.10
2018-07-21T00:56:11.273Z,9.77
2018-07-21T01:01:15.086Z,8.60
2018-07-21T01:06:19.005Z,8.53
2018-07-21T01:11:22.989Z,8.20
2018-07-21T01:16:26.804Z,7.47
2018-07-21T01:21:30.938Z,7.90
2018-07-21T01:26:34.749Z,10.23
2018-07-21T01:31:38.858Z,9.30
2018-07-21T01:36:42.922Z,7.33
2018-07-21T01:41:46.971Z,7.43
2018-07-21T01:46:51.619Z,7.67
2018-07-21T01:51:55.425Z,7.87
2018-07-21T01:56:59.495Z,8.70
2018-07-21T02:02:03.302Z,8.10
2018-07-21T02:07:07.346Z,7.43
2018-07-21T02:12:11.158Z,7.53
2018-07-21T02:17:14.974Z,7.40
2018-07-21T02:22:18.800Z,8.40
2018-07-21T02:27:22.629Z,11.90
2018-07-21T02:32:26.679Z,7.63
2018-07-21T02:37:30.722Z,7.77
2018-07-21T02:42:34.558Z,7.60
2018-07-21T02:47:38.378Z,8.10
2018-07-21T02:52:42.265Z,11.47
2018-07-21T02:57:46.351Z,8.13
2018-07-21T03:02:50.404Z,9.63
2018-07-21T03:07:54.436Z,8.27
2018-07-21T03:12:58.489Z,7.60
2018-07-21T03:18:02.617Z,7.63
2018-07-21T03:23:06.664Z,8.67
2018-07-21T03:28:10.685Z,8.03
2018-07-21T03:33:14.480Z,8.10
2018-07-21T03:38:18.541Z,7.53
2018-07-21T03:43:22.572Z,8.10
2018-07-21T03:48:26.378Z,10.70
2018-07-21T03:53:30.165Z,8.67
2018-07-21T03:58:33.952Z,9.23
2018-07-21T04:03:37.748Z,8.53
2018-07-21T04:08:41.531Z,7.03
2018-07-21T04:13:45.317Z,7.30
2018-07-21T04:18:49.172Z,8.23
2018-07-21T04:23:53.207Z,9.73
2018-07-21T04:28:57.371Z,8.20
2018-07-21T04:34:01.348Z,10.37
2018-07-21T04:39:09.069Z,7.77
2018-07-21T04:44:12.871Z,8.03
2018-07-21T04:49:16.692Z,9.83
2018-07-21T04:54:20.765Z,7.90
2018-07-21T04:59:24.805Z,8.43
2018-07-21T05:04:28.849Z,8.50
2018-07-21T05:09:32.872Z,7.50
2018-07-21T05:14:37.528Z,7.77
2018-07-21T05:19:41.324Z,8.40
2018-07-21T05:24:45.144Z,11.90
2018-07-21T05:29:49.183Z,12.03
2018-07-21T05:34:52.998Z,10.63
2018-07-21T05:39:56.787Z,9.97
2018-07-21T05:45:00.677Z,7.57
2018-07-21T05:50:05.120Z,9.67
2018-07-21T05:55:08.912Z,8.50
2018-07-21T06:00:13.772Z,7.33
2018-07-21T06:05:17.576Z,7.17
2018-07-21T06:10:21.355Z,9.07
2018-07-21T06:15:25.177Z,10.33
2018-07-21T06:20:28.981Z,9.57
2018-07-21T06:25:32.764Z,9.73
2018-07-21T06:30:36.557Z,10.65
2018-07-21T06:35:40.569Z,9.93
2018-07-21T06:40:44.402Z,7.90
2018-07-21T06:45:48.230Z,11.17
2018-07-21T06:50:52.108Z,9.47
2018-07-21T06:55:55.896Z,14.70
2018-07-21T07:00:59.941Z,8.83
2018-07-21T07:06:03.776Z,9.40
2018-07-21T07:11:07.800Z,7.83
2018-07-21T07:16:11.838Z,10.23
2018-07-21T07:21:15.624Z,8.58
2018-07-21T07:26:19.473Z,10.83
2018-07-21T07:31:23.509Z,10.10
2018-07-21T07:36:27.315Z,9.17
2018-07-21T07:41:31.340Z,9.20
2018-07-21T07:46:35.532Z,8.63
2018-07-21T07:51:39.335Z,11.53
2018-07-21T07:56:43.130Z,11.50
2018-07-21T08:01:47.120Z,11.10
2018-07-21T08:12:01.212Z,10.77
2018-07-21T08:17:05.024Z,11.60
2018-07-21T08:22:09.314Z,9.90
2018-07-21T08:27:13.105Z,10.90
2018-07-21T08:32:17.129Z,10.70
2018-07-21T08:37:21.268Z,17.53
2018-07-21T08:42:25.306Z,15.50
2018-07-21T08:47:29.092Z,15.77
2018-07-21T08:52:32.940Z,15.77
2018-07-21T08:57:36.739Z,14.70
2018-07-21T09:02:40.768Z,12.27
2018-07-21T09:07:44.804Z,15.30
2018-07-21T09:12:48.596Z,12.80
2018-07-21T09:17:52.393Z,16.13
2018-07-21T09:22:56.185Z,16.17
2018-07-21T09:28:00.231Z,12.43
2018-07-21T09:33:04.029Z,11.93
2018-07-21T09:38:08.065Z,13.80
2018-07-21T09:43:12.094Z,13.33
2018-07-21T09:48:16.137Z,12.20
2018-07-21T09:53:19.964Z,13.17
2018-07-21T09:58:24.000Z,11.63
2018-07-21T10:03:28.042Z,10.97
2018-07-21T10:08:32.122Z,11.40
2018-07-21T10:13:36.157Z,11.18
2018-07-21T10:18:40.225Z,12.37
2018-07-21T10:23:44.021Z,14.37
2018-07-21T10:28:53.502Z,12.67
2018-07-21T10:33:57.312Z,12.40
2018-07-21T10:39:01.105Z,13.83
2018-07-21T10:44:04.902Z,12.23
2018-07-21T10:49:08.700Z,12.17
2018-07-21T10:54:12.508Z,12.47
2018-07-21T10:59:16.300Z,12.03
2018-07-21T11:04:20.341Z,14.90
2018-07-21T11:09:24.377Z,12.73
2018-07-21T11:14:28.410Z,12.03
2018-07-21T11:19:32.208Z,10.60
2018-07-21T11:24:36.013Z,12.60
2018-07-21T11:29:39.796Z,12.83
2018-07-21T11:34:43.848Z,10.45
2018-07-21T11:39:47.676Z,10.53
2018-07-21T11:44:51.488Z,11.50
2018-07-21T11:49:55.288Z,12.20
2018-07-21T11:54:59.084Z,14.40
2018-07-21T12:00:03.205Z,12.33
2018-07-21T12:05:07.234Z,11.90
2018-07-21T12:10:11.031Z,10.20
2018-07-21T12:15:14.804Z,9.60
2018-07-21T12:20:18.620Z,9.27
2018-07-21T12:25:22.483Z,11.30
2018-07-21T12:30:26.273Z,10.60
2018-07-21T12:35:30.068Z,8.17
2018-07-21T12:40:33.864Z,10.13
2018-07-21T12:45:37.669Z,10.33
2018-07-21T12:50:41.463Z,9.03
2018-07-21T12:55:45.277Z,9.87
2018-07-21T13:00:49.076Z,9.80
2018-07-21T13:05:52.869Z,8.87
2018-07-21T13:10:56.912Z,9.93
2018-07-21T13:16:00.742Z,8.63
2018-07-21T13:21:04.750Z,11.40
2018-07-21T13:26:08.628Z,9.27
2018-07-21T13:31:12.420Z,10.73
2018-07-21T13:36:16.304Z,8.97
2018-07-21T13:41:20.103Z,8.47
2018-07-21T13:46:23.956Z,8.17
2018-07-21T13:51:28.213Z,8.83
2018-07-21T13:56:32.053Z,7.90
2018-07-21T14:01:35.852Z,8.30
2018-07-21T14:06:39.651Z,7.60
2018-07-21T14:11:43.433Z,7.80
2018-07-21T14:16:47.234Z,7.83
2018-07-21T14:21:51.052Z,8.00
2018-07-21T14:26:54.843Z,9.90
2018-07-21T14:31:58.886Z,8.73
2018-07-21T14:37:03.109Z,7.37
2018-07-21T14:42:06.901Z,6.78
2018-07-21T14:47:10.876Z,6.58
2018-07-21T14:52:14.664Z,6.97
2018-07-21T14:57:18.672Z,7.77
2018-07-21T15:02:22.451Z,7.63
2018-07-21T15:07:26.241Z,6.08
2018-07-21T15:12:30.274Z,5.07
2018-07-21T15:17:34.093Z,6.53
2018-07-21T15:22:37.882Z,11.90
2018-07-21T15:27:41.673Z,10.20
2018-07-21T15:32:45.464Z,15.20
2018-07-21T15:37:49.292Z,11.47
2018-07-21T15:42:53.080Z,14.53
2018-07-21T15:47:57.227Z,18.53
2018-07-21T15:53:01.008Z,26.57
2018-07-21T15:58:04.809Z,20.70
2018-07-21T16:03:08.660Z,24.10
2018-07-21T16:08:12.452Z,49.50
2018-07-21T16:13:16.248Z,29.10
2018-07-21T16:18:20.048Z,24.53
2018-07-21T16:23:24.105Z,25.60
2018-07-21T16:28:28.182Z,25.50
2018-07-21T16:33:32.222Z,25.23
2018-07-21T16:38:36.021Z,23.23
2018-07-21T16:43:39.832Z,22.83
2018-07-21T16:48:43.660Z,18.27
2018-07-21T16:53:47.509Z,18.07
2018-07-21T16:58:51.547Z,18.57
2018-07-21T17:03:55.349Z,18.60
2018-07-21T17:08:59.413Z,19.30
2018-07-21T17:14:03.489Z,19.83
2018-07-21T17:19:07.351Z,21.23
2018-07-21T17:24:11.366Z,19.77
2018-07-21T17:29:15.168Z,22.03
2018-07-21T17:34:18.963Z,21.30
2018-07-21T17:39:22.793Z,19.45
2018-07-21T17:44:26.544Z,20.80
2018-07-21T17:49:30.596Z,21.30
2018-07-21T17:54:34.384Z,21.73
2018-07-21T17:59:38.286Z,21.93
2018-07-21T18:04:42.080Z,23.57
2018-07-21T18:09:45.933Z,22.40
2018-07-21T18:14:50.539Z,18.20
2018-07-21T18:19:54.327Z,17.67
2018-07-21T18:24:58.122Z,17.43
2018-07-21T18:30:02.229Z,14.98
2018-07-21T18:35:06.278Z,15.10
2018-07-21T18:40:10.176Z,15.78
2018-07-21T18:45:13.944Z,16.83
2018-07-21T18:50:18.228Z,18.13
2018-07-21T18:55:22.057Z,19.27
2018-07-21T19:00:25.859Z,17.60
2018-07-21T19:05:29.648Z,19.87
2018-07-21T19:10:33.716Z,19.47
2018-07-21T19:15:42.957Z,22.63
2018-07-21T19:20:52.202Z,21.90
2018-07-21T19:26:01.316Z,23.43
2018-07-21T19:31:05.389Z,23.43
2018-07-21T19:36:09.180Z,22.30
2018-07-21T19:41:18.637Z,27.83
2018-07-21T19:46:22.430Z,26.43
2018-07-21T19:51:26.232Z,26.03
2018-07-21T19:56:30.173Z,25.33
2018-07-21T20:01:34.201Z,25.10
2018-07-21T20:06:38.016Z,26.30
2018-07-21T20:11:42.113Z,24.77
2018-07-21T20:16:45.924Z,24.10
2018-07-21T20:21:49.729Z,23.67
2018-07-21T20:26:53.529Z,23.87
2018-07-21T20:31:57.321Z,23.13
2018-07-21T20:37:01.169Z,21.87
2018-07-21T20:42:05.212Z,23.43
2018-07-21T20:47:09.014Z,23.87
2018-07-21T20:52:13.117Z,24.03
2018-07-21T20:57:17.181Z,22.60
2018-07-21T21:02:20.974Z,22.90
2018-07-21T21:07:24.768Z,22.63
2018-07-21T21:12:28.589Z,22.73
2018-07-21T21:17:32.372Z,22.60
2018-07-21T21:22:36.178Z,20.87
2018-07-21T21:27:39.964Z,20.17
2018-07-21T21:32:43.772Z,20.53
2018-07-21T21:37:47.833Z,20.70
2018-07-21T21:42:52.232Z,20.23
2018-07-21T21:47:56.266Z,20.77
2018-07-21T21:53:00.089Z,18.23
2018-07-21T21:58:04.340Z,20.87
2018-07-21T22:03:08.144Z,17.30
2018-07-21T22:08:11.944Z,18.20
2018-07-21T22:13:15.741Z,15.87
2018-07-21T22:18:19.557Z,16.43
2018-07-21T22:23:23.596Z,15.40
2018-07-21T22:28:27.392Z,16.03
2018-07-21T22:33:31.438Z,15.97
2018-07-21T22:38:35.477Z,14.70
2018-07-21T22:43:39.281Z,15.30
2018-07-21T22:48:43.072Z,16.53
2018-07-21T22:53:46.888Z,16.97
2018-07-21T22:58:50.685Z,16.37
2018-07-21T23:03:54.727Z,16.13
2018-07-21T23:08:58.750Z,16.10
2018-07-21T23:14:02.887Z,18.20
2018-07-21T23:19:06.972Z,16.73
2018-07-21T23:24:10.967Z,16.57
2018-07-21T23:29:14.770Z,17.23
2018-07-21T23:34:18.564Z,17.97
2018-07-21T23:39:22.364Z,17.23
2018-07-21T23:44:26.397Z,17.37
2018-07-21T23:49:30.193Z,18.73
2018-07-21T23:54:34.058Z,19.87
2018-07-21T23:59:37.851Z,19.90
